createdAt,value
2022-07-29T00:00:55.549Z,0.00
2022-07-29T00:01:55.473Z,0.00
2022-07-29T00:02:55.426Z,0.00
2022-07-29T00:03:55.389Z,0.00
2022-07-29T00:04:55.252Z,0.00
2022-07-29T00:05:55.184Z,0.00
2022-07-29T00:06:55.104Z,0.00
2022-07-29T00:07:55.035Z,0.00
2022-07-29T00:08:54.961Z,0.00
2022-07-29T00:09:54.885Z,0.00
2022-07-29T00:10:54.820Z,0.00
2022-07-29T00:11:54.740Z,0.00
2022-07-29T00:12:54.665Z,0.00
2022-07-29T00:13:54.590Z,0.00
2022-07-29T00:14:54.516Z,0.00
2022-07-29T00:15:54.447Z,0.00
2022-07-29T00:16:54.480Z,0.00
2022-07-29T00:17:54.296Z,0.00
2022-07-29T00:18:54.229Z,0.00
2022-07-29T00:19:54.156Z,0.00
2022-07-29T00:20:54.078Z,0.00
2022-07-29T00:21:54.008Z,0.00
2022-07-29T00:22:53.939Z,0.00
2022-07-29T00:23:53.864Z,0.00
2022-07-29T00:24:53.790Z,0.00
2022-07-29T00:25:53.717Z,0.00
2022-07-29T00:26:53.642Z,0.00
2022-07-29T00:27:53.568Z,0.00
2022-07-29T00:29:06.369Z,0.00
2022-07-29T00:29:53.426Z,0.00
2022-07-29T00:30:53.357Z,0.00
2022-07-29T00:31:53.319Z,0.00
2022-07-29T00:32:53.210Z,0.00
2022-07-29T00:33:53.132Z,0.00
2022-07-29T00:34:53.061Z,0.00
2022-07-29T00:35:52.987Z,0.00
2022-07-29T00:36:52.908Z,0.00
2022-07-29T00:37:52.837Z,0.00
2022-07-29T00:38:52.768Z,0.00
2022-07-29T00:39:52.700Z,0.00
2022-07-29T00:40:52.618Z,0.00
2022-07-29T00:41:52.544Z,0.00
2022-07-29T00:42:52.473Z,0.00
2022-07-29T00:43:52.403Z,0.00
2022-07-29T00:44:52.323Z,0.00
2022-07-29T00:45:52.258Z,0.00
2022-07-29T00:46:52.277Z,0.00
2022-07-29T00:47:52.108Z,0.00
2022-07-29T00:48:52.062Z,0.00
2022-07-29T00:49:51.965Z,0.00
2022-07-29T00:50:51.883Z,0.00
2022-07-29T00:51:51.820Z,0.00
2022-07-29T00:52:51.738Z,0.00
2022-07-29T00:53:51.667Z,0.00
2022-07-29T00:54:51.589Z,0.00
2022-07-29T00:55:51.523Z,0.00
2022-07-29T00:56:51.456Z,0.00
2022-07-29T00:57:51.372Z,0.00
2022-07-29T00:58:51.300Z,0.00
2022-07-29T00:59:51.233Z,0.00
2022-07-29T01:00:51.208Z,0.00
2022-07-29T01:01:51.154Z,0.00
2022-07-29T01:02:51.005Z,0.00
2022-07-29T01:03:50.932Z,0.00
2022-07-29T01:04:50.865Z,0.00
2022-07-29T01:05:51.970Z,0.00
2022-07-29T01:06:50.719Z,0.00
2022-07-29T01:07:50.651Z,0.00
2022-07-29T01:08:50.581Z,0.00
2022-07-29T01:09:50.498Z,0.00
2022-07-29T01:10:50.425Z,0.00
2022-07-29T01:11:50.349Z,0.00
2022-07-29T01:12:50.276Z,0.00
2022-07-29T01:13:50.210Z,0.00
2022-07-29T01:14:50.134Z,0.00
2022-07-29T01:15:50.254Z,0.00
2022-07-29T01:16:49.984Z,0.00
2022-07-29T01:17:53.646Z,0.00
2022-07-29T01:18:49.833Z,0.00
2022-07-29T01:19:49.762Z,0.00
2022-07-29T01:20:49.687Z,0.00
2022-07-29T01:21:49.611Z,0.00
2022-07-29T01:22:49.539Z,0.00
2022-07-29T01:23:49.467Z,0.00
2022-07-29T01:24:49.395Z,0.00
2022-07-29T01:25:50.733Z,0.00
2022-07-29T01:26:49.245Z,0.00
2022-07-29T01:27:49.172Z,0.00
2022-07-29T01:28:49.101Z,0.00
2022-07-29T01:29:49.025Z,0.00
2022-07-29T01:30:48.956Z,0.00
2022-07-29T01:31:59.578Z,0.00
2022-07-29T01:32:48.806Z,0.00
2022-07-29T01:33:48.737Z,0.00
2022-07-29T01:34:48.691Z,0.00
2022-07-29T01:35:48.587Z,0.00
2022-07-29T01:36:48.513Z,0.00
2022-07-29T01:37:48.437Z,0.00
2022-07-29T01:38:48.365Z,0.00
2022-07-29T01:39:48.299Z,0.00
2022-07-29T01:40:48.221Z,0.00
2022-07-29T01:41:48.147Z,0.00
2022-07-29T01:42:48.077Z,0.00
2022-07-29T01:43:48.000Z,0.00
2022-07-29T01:44:47.926Z,0.00
2022-07-29T01:45:47.856Z,0.00
2022-07-29T01:46:47.859Z,0.00
2022-07-29T01:47:47.709Z,0.00
2022-07-29T01:48:47.813Z,0.00
2022-07-29T01:49:47.561Z,0.00
2022-07-29T01:50:47.489Z,0.00
2022-07-29T01:51:47.421Z,0.00
2022-07-29T01:52:47.362Z,0.00
2022-07-29T01:53:47.269Z,0.00
2022-07-29T01:54:47.193Z,0.00
2022-07-29T01:55:47.116Z,0.00
2022-07-29T01:56:47.047Z,0.00
2022-07-29T01:57:46.968Z,0.00
2022-07-29T01:58:46.900Z,0.00
2022-07-29T01:59:46.821Z,0.00
2022-07-29T02:00:46.759Z,0.00
2022-07-29T02:01:46.737Z,0.00
2022-07-29T02:02:46.598Z,0.00
2022-07-29T02:03:46.531Z,0.00
2022-07-29T02:04:46.519Z,0.00
2022-07-29T02:05:46.383Z,0.00
2022-07-29T02:06:46.310Z,0.00
2022-07-29T02:07:46.234Z,0.00
2022-07-29T02:08:46.165Z,0.00
2022-07-29T02:09:46.090Z,0.00
2022-07-29T02:10:46.019Z,0.00
2022-07-29T02:11:45.944Z,0.00
2022-07-29T02:12:48.650Z,0.00
2022-07-29T02:13:45.791Z,0.00
2022-07-29T02:14:45.724Z,0.00
2022-07-29T02:15:45.717Z,0.00
2022-07-29T02:16:45.575Z,0.00
2022-07-29T02:17:45.499Z,0.00
2022-07-29T02:18:45.427Z,0.00
2022-07-29T02:19:45.361Z,0.00
2022-07-29T02:20:45.284Z,0.00
2022-07-29T02:21:45.203Z,0.00
2022-07-29T02:22:45.133Z,0.00
2022-07-29T02:23:51.577Z,0.00
2022-07-29T02:24:44.990Z,0.00
2022-07-29T02:25:44.914Z,0.00
2022-07-29T02:26:44.836Z,0.00
2022-07-29T02:27:44.762Z,0.00
2022-07-29T02:28:44.688Z,0.00
2022-07-29T02:29:44.613Z,0.00
2022-07-29T02:30:44.673Z,0.00
2022-07-29T02:31:44.557Z,0.00
2022-07-29T02:32:44.394Z,0.00
2022-07-29T02:33:44.317Z,0.00
2022-07-29T02:34:44.250Z,0.00
2022-07-29T02:35:44.171Z,0.00
2022-07-29T02:36:44.096Z,0.00
2022-07-29T02:37:44.023Z,0.00
2022-07-29T02:38:43.960Z,0.00
2022-07-29T02:39:43.880Z,0.00
2022-07-29T02:40:43.802Z,0.00
2022-07-29T02:41:43.728Z,0.00
2022-07-29T02:42:43.655Z,0.00
2022-07-29T02:43:43.584Z,0.00
2022-07-29T02:44:43.517Z,0.00
2022-07-29T02:45:43.434Z,0.00
2022-07-29T02:46:43.376Z,0.00
2022-07-29T02:47:43.282Z,0.00
2022-07-29T02:48:43.240Z,0.00
2022-07-29T02:49:43.139Z,0.00
2022-07-29T02:50:43.066Z,0.00
2022-07-29T02:51:44.739Z,0.00
2022-07-29T02:52:42.936Z,0.00
2022-07-29T02:53:42.845Z,0.00
2022-07-29T02:54:42.771Z,0.00
2022-07-29T02:55:42.698Z,0.00
2022-07-29T02:56:42.619Z,0.00
2022-07-29T02:57:55.012Z,0.00
2022-07-29T02:58:42.476Z,0.00
2022-07-29T02:59:42.400Z,0.00
2022-07-29T03:00:42.334Z,0.00
2022-07-29T03:01:42.303Z,0.00
2022-07-29T03:02:42.188Z,0.00
2022-07-29T03:03:42.109Z,0.00
2022-07-29T03:04:42.127Z,0.00
2022-07-29T03:05:41.954Z,0.00
2022-07-29T03:06:41.886Z,0.00
2022-07-29T03:07:41.806Z,0.00
2022-07-29T03:08:41.736Z,0.00
2022-07-29T03:09:41.658Z,0.00
2022-07-29T03:10:41.587Z,0.00
2022-07-29T03:11:49.122Z,0.00
2022-07-29T03:12:41.435Z,0.00
2022-07-29T03:13:41.369Z,0.00
2022-07-29T03:14:41.293Z,0.00
2022-07-29T03:15:41.267Z,0.00
2022-07-29T03:16:41.481Z,0.00
2022-07-29T03:17:41.072Z,0.00
2022-07-29T03:18:40.994Z,0.00
2022-07-29T03:19:40.923Z,0.00
2022-07-29T03:20:40.847Z,0.00
2022-07-29T03:21:40.815Z,0.00
2022-07-29T03:22:40.699Z,0.00
2022-07-29T03:23:40.624Z,0.00
2022-07-29T03:24:40.548Z,0.00
2022-07-29T03:25:40.480Z,0.00
2022-07-29T03:26:40.412Z,0.00
2022-07-29T03:27:40.335Z,0.00
2022-07-29T03:28:40.252Z,0.00
2022-07-29T03:29:40.180Z,0.00
2022-07-29T03:30:40.103Z,0.00
2022-07-29T03:31:40.090Z,0.00
2022-07-29T03:32:39.962Z,0.00
2022-07-29T03:33:39.885Z,0.00
2022-07-29T03:34:39.806Z,0.00
2022-07-29T03:35:39.734Z,0.00
2022-07-29T03:36:39.660Z,0.00
2022-07-29T03:37:39.586Z,0.00
2022-07-29T03:38:39.513Z,0.00
2022-07-29T03:39:39.439Z,0.00
2022-07-29T03:40:39.364Z,0.00
2022-07-29T03:41:39.290Z,0.00
2022-07-29T03:42:39.224Z,0.00
2022-07-29T03:43:39.140Z,0.00
2022-07-29T03:44:39.065Z,0.00
2022-07-29T03:45:38.998Z,0.00
2022-07-29T03:46:39.003Z,0.00
2022-07-29T03:47:50.915Z,0.00
2022-07-29T03:48:38.849Z,0.00
2022-07-29T03:49:38.696Z,0.00
2022-07-29T03:50:38.627Z,0.00
2022-07-29T03:51:38.553Z,0.00
2022-07-29T03:52:38.478Z,0.00
2022-07-29T03:53:38.400Z,0.00
2022-07-29T03:54:38.323Z,0.00
2022-07-29T03:55:38.249Z,0.00
2022-07-29T03:56:38.176Z,0.00
2022-07-29T03:57:38.101Z,0.00
2022-07-29T03:58:38.030Z,0.00
2022-07-29T03:59:37.955Z,0.00
2022-07-29T04:00:37.914Z,0.00
2022-07-29T04:01:37.889Z,0.00
2022-07-29T04:02:37.738Z,0.00
2022-07-29T04:03:37.717Z,0.00
2022-07-29T04:04:37.584Z,0.00
2022-07-29T04:05:37.519Z,0.00
2022-07-29T04:06:37.438Z,0.00
2022-07-29T04:07:37.367Z,5.63
2022-07-29T04:08:37.285Z,5.63
2022-07-29T04:09:37.214Z,5.63
2022-07-29T04:10:37.147Z,5.63
2022-07-29T04:12:02.221Z,5.63
2022-07-29T04:12:36.987Z,5.63
2022-07-29T04:13:36.919Z,5.63
2022-07-29T04:14:36.840Z,5.63
2022-07-29T04:15:36.822Z,11.25
2022-07-29T04:16:36.695Z,11.25
2022-07-29T04:17:36.620Z,11.25
2022-07-29T04:18:36.548Z,11.25
2022-07-29T04:19:36.469Z,11.25
2022-07-29T04:20:36.399Z,11.25
2022-07-29T04:21:36.321Z,11.25
2022-07-29T04:22:36.254Z,11.25
2022-07-29T04:23:36.173Z,11.25
2022-07-29T04:24:36.101Z,11.25
2022-07-29T04:25:36.030Z,11.25
2022-07-29T04:26:35.956Z,11.25
2022-07-29T04:27:35.880Z,11.25
2022-07-29T04:28:35.800Z,11.25
2022-07-29T04:29:35.731Z,11.25
2022-07-29T04:30:35.654Z,11.25
2022-07-29T04:31:35.675Z,11.25
2022-07-29T04:32:35.507Z,11.25
2022-07-29T04:33:35.432Z,11.25
2022-07-29T04:34:35.362Z,11.25
2022-07-29T04:35:38.470Z,11.25
2022-07-29T04:36:35.215Z,11.25
2022-07-29T04:37:35.134Z,11.25
2022-07-29T04:38:35.055Z,11.25
2022-07-29T04:39:34.981Z,11.25
2022-07-29T04:40:34.911Z,11.25
2022-07-29T04:41:34.839Z,11.25
2022-07-29T04:42:34.766Z,5.63
2022-07-29T04:43:36.911Z,5.63
2022-07-29T04:44:39.526Z,5.63
2022-07-29T04:45:34.535Z,5.63
2022-07-29T04:46:34.563Z,5.63
2022-07-29T04:47:34.391Z,5.63
2022-07-29T04:48:34.317Z,5.63
2022-07-29T04:49:34.239Z,5.63
2022-07-29T04:50:34.169Z,5.63
2022-07-29T04:51:34.092Z,5.63
2022-07-29T04:52:34.019Z,5.63
2022-07-29T04:53:33.942Z,5.63
2022-07-29T04:54:33.879Z,5.63
2022-07-29T04:55:33.791Z,5.63
2022-07-29T04:56:33.720Z,5.63
2022-07-29T04:57:33.644Z,5.63
2022-07-29T04:58:33.571Z,5.63
2022-07-29T04:59:33.502Z,11.25
2022-07-29T05:00:33.814Z,11.25
2022-07-29T05:01:33.401Z,11.25
2022-07-29T05:02:33.337Z,11.25
2022-07-29T05:03:33.197Z,11.25
2022-07-29T05:04:33.129Z,11.25
2022-07-29T05:05:33.056Z,11.25
2022-07-29T05:06:32.978Z,11.25
2022-07-29T05:07:32.899Z,11.25
2022-07-29T05:08:32.825Z,11.25
2022-07-29T05:09:32.751Z,11.25
2022-07-29T05:10:32.680Z,11.25
2022-07-29T05:11:32.609Z,11.25
2022-07-29T05:12:32.526Z,11.25
2022-07-29T05:13:45.723Z,11.25
2022-07-29T05:14:32.381Z,11.25
2022-07-29T05:15:32.352Z,11.25
2022-07-29T05:16:32.234Z,11.25
2022-07-29T05:17:32.155Z,11.25
2022-07-29T05:18:32.080Z,11.25
2022-07-29T05:19:32.009Z,11.25
2022-07-29T05:20:31.935Z,11.25
2022-07-29T05:21:31.861Z,11.25
2022-07-29T05:22:31.780Z,11.25
2022-07-29T05:23:31.715Z,11.25
2022-07-29T05:24:31.638Z,11.25
2022-07-29T05:25:43.031Z,11.25
2022-07-29T05:26:31.490Z,11.25
2022-07-29T05:27:31.411Z,11.25
2022-07-29T05:28:31.336Z,11.25
2022-07-29T05:29:44.588Z,11.25
2022-07-29T05:30:31.192Z,11.25
2022-07-29T05:31:31.254Z,11.25
2022-07-29T05:32:31.051Z,11.25
2022-07-29T05:33:36.159Z,11.25
2022-07-29T05:34:30.892Z,11.25
2022-07-29T05:35:30.818Z,11.25
2022-07-29T05:36:30.743Z,11.25
2022-07-29T05:37:30.665Z,16.88
2022-07-29T05:38:30.593Z,16.88
2022-07-29T05:39:49.289Z,16.88
2022-07-29T05:40:30.445Z,16.88
2022-07-29T05:41:30.372Z,16.88
2022-07-29T05:42:30.296Z,16.88
2022-07-29T05:43:30.218Z,22.50
2022-07-29T05:44:30.148Z,22.50
2022-07-29T05:45:30.076Z,22.50
2022-07-29T05:46:30.061Z,22.50
2022-07-29T05:47:29.920Z,22.50
2022-07-29T05:48:29.844Z,28.13
2022-07-29T05:49:29.838Z,28.13
2022-07-29T05:50:29.704Z,28.13
2022-07-29T05:51:29.628Z,33.75
2022-07-29T05:52:29.550Z,33.75
2022-07-29T05:53:29.480Z,39.38
2022-07-29T05:54:29.405Z,39.38
2022-07-29T05:55:29.328Z,45.00
2022-07-29T05:56:29.257Z,45.00
2022-07-29T05:57:29.190Z,50.63
2022-07-29T05:58:29.115Z,50.63
2022-07-29T05:59:30.591Z,50.63
2022-07-29T06:00:28.985Z,50.63
2022-07-29T06:01:28.957Z,50.63
2022-07-29T06:02:28.807Z,50.63
2022-07-29T06:03:28.743Z,50.63
2022-07-29T06:04:28.774Z,50.63
2022-07-29T06:05:28.586Z,50.63
2022-07-29T06:06:28.511Z,50.63
2022-07-29T06:07:28.438Z,50.63
2022-07-29T06:08:28.370Z,56.25
2022-07-29T06:09:29.313Z,61.88
2022-07-29T06:10:28.215Z,61.88
2022-07-29T06:11:28.142Z,61.88
2022-07-29T06:12:28.067Z,61.88
2022-07-29T06:13:27.996Z,61.88
2022-07-29T06:14:27.923Z,67.50
2022-07-29T06:15:27.845Z,61.88
2022-07-29T06:16:30.193Z,61.88
2022-07-29T06:17:27.690Z,67.50
2022-07-29T06:18:27.624Z,73.13
2022-07-29T06:19:27.549Z,73.13
2022-07-29T06:20:27.474Z,78.75
2022-07-29T06:21:27.399Z,73.13
2022-07-29T06:22:27.323Z,73.13
2022-07-29T06:23:27.247Z,73.13
2022-07-29T06:24:27.177Z,73.13
2022-07-29T06:25:27.116Z,78.75
2022-07-29T06:26:30.877Z,78.75
2022-07-29T06:27:26.957Z,78.75
2022-07-29T06:28:26.876Z,78.75
2022-07-29T06:29:26.805Z,78.75
2022-07-29T06:30:26.851Z,84.38
2022-07-29T06:31:26.758Z,84.38
2022-07-29T06:32:27.502Z,78.75
2022-07-29T06:33:26.508Z,78.75
2022-07-29T06:34:26.435Z,78.75
2022-07-29T06:35:39.132Z,78.75
2022-07-29T06:36:26.288Z,84.38
2022-07-29T06:37:26.222Z,90.00
2022-07-29T06:38:31.217Z,90.00
2022-07-29T06:39:26.063Z,95.63
2022-07-29T06:40:26.036Z,101.25
2022-07-29T06:41:25.917Z,101.25
2022-07-29T06:42:25.849Z,101.25
2022-07-29T06:43:26.447Z,95.63
2022-07-29T06:44:25.694Z,95.63
2022-07-29T06:45:25.618Z,95.63
2022-07-29T06:46:25.613Z,95.63
2022-07-29T06:47:25.471Z,95.63
2022-07-29T06:48:25.403Z,101.25
2022-07-29T06:49:25.467Z,101.25
2022-07-29T06:50:25.305Z,101.25
2022-07-29T06:51:25.180Z,101.25
2022-07-29T06:52:25.099Z,118.13
2022-07-29T06:53:25.034Z,112.50
2022-07-29T06:54:24.959Z,106.88
2022-07-29T06:55:25.478Z,106.88
2022-07-29T06:56:24.805Z,106.88
2022-07-29T06:57:24.739Z,112.50
2022-07-29T06:58:24.661Z,112.50
2022-07-29T06:59:33.465Z,112.50
2022-07-29T07:00:24.595Z,112.50
2022-07-29T07:01:24.504Z,112.50
2022-07-29T07:02:24.423Z,112.50
2022-07-29T07:03:24.294Z,112.50
2022-07-29T07:04:24.228Z,112.50
2022-07-29T07:05:24.146Z,112.50
2022-07-29T07:06:24.076Z,112.50
2022-07-29T07:07:23.998Z,112.50
2022-07-29T07:08:23.925Z,112.50
2022-07-29T07:09:23.848Z,106.88
2022-07-29T07:10:23.822Z,106.88
2022-07-29T07:11:23.701Z,106.88
2022-07-29T07:12:23.624Z,135.00
2022-07-29T07:13:23.553Z,129.38
2022-07-29T07:14:23.478Z,106.88
2022-07-29T07:15:39.370Z,123.75
2022-07-29T07:16:23.375Z,129.38
2022-07-29T07:17:23.258Z,123.75
2022-07-29T07:18:23.183Z,123.75
2022-07-29T07:19:23.109Z,112.50
2022-07-29T07:20:23.054Z,112.50
2022-07-29T07:21:22.972Z,112.50
2022-07-29T07:22:22.893Z,106.88
2022-07-29T07:23:22.822Z,112.50
2022-07-29T07:24:22.747Z,112.50
2022-07-29T07:25:22.673Z,112.50
2022-07-29T07:26:22.596Z,106.88
2022-07-29T07:27:22.525Z,106.88
2022-07-29T07:28:24.467Z,118.13
2022-07-29T07:29:22.376Z,112.50
2022-07-29T07:30:22.307Z,112.50
2022-07-29T07:31:22.260Z,112.50
2022-07-29T07:32:22.218Z,106.88
2022-07-29T07:33:22.081Z,106.88
2022-07-29T07:34:28.409Z,106.88
2022-07-29T07:35:21.935Z,106.88
2022-07-29T07:36:21.867Z,106.88
2022-07-29T07:37:21.789Z,106.88
2022-07-29T07:38:21.717Z,101.25
2022-07-29T07:39:21.648Z,101.25
2022-07-29T07:40:21.574Z,101.25
2022-07-29T07:41:21.500Z,101.25
2022-07-29T07:42:21.423Z,101.25
2022-07-29T07:43:21.353Z,101.25
2022-07-29T07:44:21.609Z,101.25
2022-07-29T07:45:21.203Z,101.25
2022-07-29T07:46:21.206Z,101.25
2022-07-29T07:47:21.054Z,101.25
2022-07-29T07:48:20.997Z,101.25
2022-07-29T07:49:20.952Z,101.25
2022-07-29T07:50:20.832Z,101.25
2022-07-29T07:51:20.791Z,101.25
2022-07-29T07:52:20.691Z,101.25
2022-07-29T07:53:20.641Z,101.25
2022-07-29T07:54:21.076Z,101.25
2022-07-29T07:55:20.487Z,101.25
2022-07-29T07:56:20.398Z,101.25
2022-07-29T07:57:20.319Z,101.25
2022-07-29T07:58:20.249Z,101.25
2022-07-29T07:59:20.224Z,101.25
2022-07-29T08:00:20.102Z,101.25
2022-07-29T08:01:20.251Z,101.25
2022-07-29T08:02:20.077Z,101.25
2022-07-29T08:03:19.883Z,101.25
2022-07-29T08:04:23.583Z,101.25
2022-07-29T08:05:19.740Z,101.25
2022-07-29T08:06:19.664Z,101.25
2022-07-29T08:07:19.593Z,101.25
2022-07-29T08:08:19.518Z,101.25
2022-07-29T08:09:28.751Z,101.25
2022-07-29T08:10:19.385Z,106.88
2022-07-29T08:11:19.308Z,106.88
2022-07-29T08:12:19.227Z,106.88
2022-07-29T08:13:19.155Z,106.88
2022-07-29T08:14:19.369Z,106.88
2022-07-29T08:15:19.008Z,106.88
2022-07-29T08:16:18.989Z,106.88
2022-07-29T08:17:18.859Z,106.88
2022-07-29T08:18:18.783Z,106.88
2022-07-29T08:19:18.711Z,106.88
2022-07-29T08:20:18.656Z,106.88
2022-07-29T08:21:18.579Z,112.50
2022-07-29T08:22:18.490Z,112.50
2022-07-29T08:23:18.416Z,112.50
2022-07-29T08:24:18.346Z,112.50
2022-07-29T08:25:18.276Z,112.50
2022-07-29T08:26:18.202Z,112.50
2022-07-29T08:27:41.722Z,112.50
2022-07-29T08:28:18.081Z,118.13
2022-07-29T08:29:20.043Z,118.13
2022-07-29T08:30:17.910Z,118.13
2022-07-29T08:31:17.925Z,123.75
2022-07-29T08:32:36.873Z,118.13
2022-07-29T08:33:17.684Z,118.13
2022-07-29T08:34:17.620Z,118.13
2022-07-29T08:35:17.575Z,129.38
2022-07-29T08:36:17.476Z,135.00
2022-07-29T08:37:17.397Z,146.25
2022-07-29T08:38:17.323Z,140.63
2022-07-29T08:39:17.252Z,157.50
2022-07-29T08:40:17.180Z,157.50
2022-07-29T08:41:17.109Z,157.50
2022-07-29T08:42:17.037Z,157.50
2022-07-29T08:43:16.966Z,157.50
2022-07-29T08:44:16.890Z,157.50
2022-07-29T08:45:16.823Z,157.50
2022-07-29T08:46:16.784Z,157.50
2022-07-29T08:47:16.672Z,157.50
2022-07-29T08:48:16.604Z,157.50
2022-07-29T08:49:16.579Z,157.50
2022-07-29T08:50:16.462Z,146.25
2022-07-29T08:51:16.415Z,135.00
2022-07-29T08:52:16.307Z,146.25
2022-07-29T08:53:16.245Z,140.63
2022-07-29T08:54:16.160Z,140.63
2022-07-29T08:55:16.095Z,135.00
2022-07-29T08:56:16.016Z,135.00
2022-07-29T08:57:15.948Z,123.75
2022-07-29T08:58:16.004Z,118.13
2022-07-29T08:59:15.803Z,129.38
2022-07-29T09:00:15.736Z,112.50
2022-07-29T09:01:15.679Z,112.50
2022-07-29T09:02:15.591Z,146.25
2022-07-29T09:03:15.540Z,140.63
2022-07-29T09:04:15.443Z,135.00
2022-07-29T09:05:15.365Z,129.38
2022-07-29T09:06:15.292Z,135.00
2022-07-29T09:07:15.229Z,135.00
2022-07-29T09:08:15.154Z,140.63
2022-07-29T09:09:15.085Z,135.00
2022-07-29T09:10:15.010Z,135.00
2022-07-29T09:11:14.941Z,135.00
2022-07-29T09:12:28.775Z,135.00
2022-07-29T09:13:14.794Z,135.00
2022-07-29T09:14:14.735Z,135.00
2022-07-29T09:15:14.647Z,135.00
2022-07-29T09:16:26.683Z,135.00
2022-07-29T09:17:14.514Z,135.00
2022-07-29T09:18:30.385Z,135.00
2022-07-29T09:19:14.352Z,146.25
2022-07-29T09:20:14.287Z,140.63
2022-07-29T09:21:14.212Z,140.63
2022-07-29T09:22:14.137Z,146.25
2022-07-29T09:23:14.064Z,146.25
2022-07-29T09:24:13.994Z,146.25
2022-07-29T09:25:13.926Z,146.25
2022-07-29T09:26:13.850Z,146.25
2022-07-29T09:27:13.780Z,146.25
2022-07-29T09:28:13.710Z,146.25
2022-07-29T09:29:13.631Z,146.25
2022-07-29T09:30:13.566Z,146.25
2022-07-29T09:31:13.520Z,146.25
2022-07-29T09:32:13.423Z,151.88
2022-07-29T09:33:13.346Z,146.25
2022-07-29T09:34:13.274Z,151.88
2022-07-29T09:35:13.205Z,151.88
2022-07-29T09:36:13.133Z,146.25
2022-07-29T09:37:13.059Z,151.88
2022-07-29T09:38:12.987Z,151.88
2022-07-29T09:39:12.915Z,151.88
2022-07-29T09:40:12.847Z,151.88
2022-07-29T09:41:12.770Z,146.25
2022-07-29T09:42:12.705Z,146.25
2022-07-29T09:43:12.625Z,146.25
2022-07-29T09:44:12.568Z,151.88
2022-07-29T09:45:12.482Z,157.50
2022-07-29T09:46:12.553Z,157.50
2022-07-29T09:47:12.391Z,157.50
2022-07-29T09:48:12.267Z,157.50
2022-07-29T09:49:12.313Z,163.13
2022-07-29T09:50:14.689Z,163.13
2022-07-29T09:51:12.058Z,163.13
2022-07-29T09:52:11.982Z,163.13
2022-07-29T09:53:11.909Z,163.13
2022-07-29T09:54:11.843Z,163.13
2022-07-29T09:55:18.227Z,163.13
2022-07-29T09:56:11.702Z,163.13
2022-07-29T09:57:11.626Z,163.13
2022-07-29T09:58:11.547Z,163.13
2022-07-29T09:59:11.478Z,163.13
2022-07-29T10:00:11.409Z,168.75
2022-07-29T10:01:11.411Z,168.75
2022-07-29T10:02:11.273Z,163.13
2022-07-29T10:03:11.243Z,163.13
2022-07-29T10:04:11.123Z,168.75
2022-07-29T10:05:11.047Z,174.38
2022-07-29T10:06:10.981Z,180.00
2022-07-29T10:07:10.910Z,180.00
2022-07-29T10:08:10.835Z,180.00
2022-07-29T10:09:10.764Z,180.00
2022-07-29T10:10:10.696Z,180.00
2022-07-29T10:11:10.619Z,180.00
2022-07-29T10:12:10.546Z,168.75
2022-07-29T10:13:15.211Z,174.38
2022-07-29T10:14:10.411Z,180.00
2022-07-29T10:15:10.377Z,185.63
2022-07-29T10:16:10.344Z,191.25
2022-07-29T10:17:10.190Z,191.25
2022-07-29T10:18:10.119Z,191.25
2022-07-29T10:19:10.051Z,191.25
2022-07-29T10:20:13.609Z,191.25
2022-07-29T10:21:09.910Z,191.25
2022-07-29T10:22:09.834Z,191.25
2022-07-29T10:23:09.763Z,185.63
2022-07-29T10:24:14.704Z,185.63
2022-07-29T10:25:09.623Z,185.63
2022-07-29T10:26:09.555Z,180.00
2022-07-29T10:27:09.474Z,185.63
2022-07-29T10:28:12.158Z,191.25
2022-07-29T10:29:09.336Z,191.25
2022-07-29T10:30:09.267Z,196.88
2022-07-29T10:31:09.241Z,202.50
2022-07-29T10:32:09.124Z,208.13
2022-07-29T10:33:09.051Z,208.13
2022-07-29T10:34:08.980Z,208.13
2022-07-29T10:35:08.907Z,196.88
2022-07-29T10:36:09.287Z,219.38
2022-07-29T10:37:08.766Z,225.00
2022-07-29T10:38:11.466Z,230.63
2022-07-29T10:39:08.641Z,236.25
2022-07-29T10:40:08.556Z,247.50
2022-07-29T10:41:08.607Z,247.50
2022-07-29T10:42:08.411Z,241.88
2022-07-29T10:43:08.346Z,236.25
2022-07-29T10:44:08.272Z,247.50
2022-07-29T10:45:08.201Z,253.13
2022-07-29T10:46:08.141Z,258.75
2022-07-29T10:47:08.055Z,270.00
2022-07-29T10:48:08.167Z,286.88
2022-07-29T10:49:08.178Z,298.13
2022-07-29T10:50:07.842Z,298.13
2022-07-29T10:51:07.777Z,298.13
2022-07-29T10:52:07.701Z,281.25
2022-07-29T10:53:08.935Z,264.38
2022-07-29T10:54:07.565Z,320.63
2022-07-29T10:55:07.502Z,326.25
2022-07-29T10:56:07.432Z,331.88
2022-07-29T10:57:07.347Z,337.50
2022-07-29T10:58:07.274Z,365.63
2022-07-29T10:59:07.215Z,388.13
2022-07-29T11:00:07.139Z,405.00
2022-07-29T11:01:07.066Z,388.13
2022-07-29T11:02:35.436Z,382.50
2022-07-29T11:03:10.670Z,376.88
2022-07-29T11:04:06.864Z,382.50
2022-07-29T11:05:06.785Z,388.13
2022-07-29T11:06:08.541Z,382.50
2022-07-29T11:07:06.645Z,393.75
2022-07-29T11:08:06.578Z,405.00
2022-07-29T11:09:06.504Z,421.88
2022-07-29T11:10:06.438Z,410.63
2022-07-29T11:11:06.370Z,427.50
2022-07-29T11:12:06.297Z,427.50
2022-07-29T11:13:06.231Z,427.50
2022-07-29T11:14:06.155Z,416.25
2022-07-29T11:15:06.087Z,399.38
2022-07-29T11:16:06.021Z,388.13
2022-07-29T11:17:06.798Z,388.13
2022-07-29T11:18:05.877Z,399.38
2022-07-29T11:19:05.805Z,410.63
2022-07-29T11:20:05.734Z,427.50
2022-07-29T11:21:05.664Z,427.50
2022-07-29T11:22:05.711Z,438.75
2022-07-29T11:23:05.528Z,433.13
2022-07-29T11:24:05.464Z,427.50
2022-07-29T11:25:05.388Z,421.88
2022-07-29T11:26:05.317Z,405.00
2022-07-29T11:27:05.471Z,393.75
2022-07-29T11:28:05.185Z,393.75
2022-07-29T11:29:05.108Z,388.13
2022-07-29T11:30:05.043Z,371.25
2022-07-29T11:31:04.971Z,371.25
2022-07-29T11:32:04.906Z,376.88
2022-07-29T11:33:04.838Z,388.13
2022-07-29T11:34:05.714Z,393.75
2022-07-29T11:35:17.157Z,388.13
2022-07-29T11:36:04.628Z,376.88
2022-07-29T11:37:04.555Z,365.63
2022-07-29T11:38:04.485Z,343.13
2022-07-29T11:39:04.419Z,326.25
2022-07-29T11:40:04.353Z,320.63
2022-07-29T11:41:04.282Z,320.63
2022-07-29T11:42:13.552Z,320.63
2022-07-29T11:43:07.448Z,320.63
2022-07-29T11:44:04.075Z,315.00
2022-07-29T11:46:03.930Z,326.25
2022-07-29T11:47:03.867Z,331.88
2022-07-29T11:48:28.383Z,331.88
2022-07-29T11:49:03.784Z,343.13
2022-07-29T11:50:03.660Z,320.63
2022-07-29T11:51:03.597Z,303.75
2022-07-29T11:52:03.844Z,343.13
2022-07-29T11:53:03.448Z,331.88
2022-07-29T11:54:05.279Z,331.88
2022-07-29T11:55:09.681Z,331.88
2022-07-29T11:56:03.396Z,337.50
2022-07-29T11:57:03.174Z,337.50
2022-07-29T11:58:03.544Z,343.13
2022-07-29T11:59:03.034Z,354.38
2022-07-29T12:00:09.569Z,365.63
2022-07-29T12:01:04.901Z,393.75
2022-07-29T12:02:33.130Z,421.88
2022-07-29T12:03:02.837Z,427.50
2022-07-29T12:04:02.722Z,410.63
2022-07-29T12:05:10.841Z,399.38
2022-07-29T12:06:02.558Z,393.75
2022-07-29T12:07:03.661Z,320.63
2022-07-29T12:08:02.416Z,343.13
2022-07-29T12:09:02.344Z,320.63
2022-07-29T12:10:02.273Z,292.50
2022-07-29T12:11:02.207Z,281.25
2022-07-29T12:12:05.450Z,281.25
2022-07-29T12:13:02.068Z,264.38
2022-07-29T12:14:01.999Z,230.63
2022-07-29T12:15:01.928Z,219.38
2022-07-29T12:16:02.445Z,208.13
2022-07-29T12:17:01.796Z,213.75
2022-07-29T12:18:03.999Z,208.13
2022-07-29T12:19:02.360Z,213.75
2022-07-29T12:20:01.585Z,225.00
2022-07-29T12:21:03.269Z,236.25
2022-07-29T12:22:02.316Z,241.88
2022-07-29T12:23:01.377Z,253.13
2022-07-29T12:24:08.849Z,264.38
2022-07-29T12:25:29.975Z,264.38
2022-07-29T12:26:01.170Z,270.00
2022-07-29T12:27:01.121Z,264.38
2022-07-29T12:28:01.031Z,258.75
2022-07-29T12:29:02.353Z,247.50
2022-07-29T12:30:00.900Z,236.25
2022-07-29T12:31:00.897Z,225.00
2022-07-29T12:32:01.141Z,219.38
2022-07-29T12:33:00.678Z,208.13
2022-07-29T12:34:00.617Z,202.50
2022-07-29T12:35:00.547Z,202.50
2022-07-29T12:36:06.830Z,202.50
2022-07-29T12:37:00.406Z,213.75
2022-07-29T12:38:00.335Z,225.00
2022-07-29T12:39:00.266Z,236.25
2022-07-29T12:40:00.202Z,247.50
2022-07-29T12:41:00.134Z,258.75
2022-07-29T12:42:04.880Z,286.88
2022-07-29T12:42:59.992Z,309.38
2022-07-29T12:43:59.926Z,326.25
2022-07-29T12:44:59.848Z,320.63
2022-07-29T12:45:59.780Z,298.13
2022-07-29T12:46:59.740Z,286.88
2022-07-29T12:47:59.639Z,270.00
2022-07-29T12:48:59.715Z,264.38
2022-07-29T12:49:59.499Z,258.75